sensor_id;sensor_type;location;lat;lon;timestamp;P1;durP1;ratioP1;P2;durP2;ratioP2
11590;SDS011;5851;54.050;9.974;2024-01-30T00:00:03;9.95;;;7.95;;
11590;SDS011;5851;54.050;9.974;2024-01-30T00:02:31;10.75;;;8.45;;
11590;SDS011;5851;54.050;9.974;2024-01-30T00:04:58;11.43;;;9.23;;
11590;SDS011;5851;54.050;9.974;2024-01-30T00:07:25;11.48;;;9.00;;
11590;SDS011;5851;54.050;9.974;2024-01-30T00:09:52;9.90;;;8.73;;
11590;SDS011;5851;54.050;9.974;2024-01-30T00:12:19;11.23;;;8.93;;
11590;SDS011;5851;54.050;9.974;2024-01-30T00:14:46;10.27;;;8.03;;
11590;SDS011;5851;54.050;9.974;2024-01-30T00:17:15;11.45;;;8.73;;
11590;SDS011;5851;54.050;9.974;2024-01-30T00:19:42;11.60;;;8.95;;
11590;SDS011;5851;54.050;9.974;2024-01-30T00:22:08;9.93;;;8.73;;
11590;SDS011;5851;54.050;9.974;2024-01-30T00:24:35;11.57;;;8.90;;
11590;SDS011;5851;54.050;9.974;2024-01-30T00:27:02;10.48;;;8.57;;
11590;SDS011;5851;54.050;9.974;2024-01-30T00:29:30;11.02;;;9.00;;
11590;SDS011;5851;54.050;9.974;2024-01-30T00:31:58;11.95;;;9.48;;
11590;SDS011;5851;54.050;9.974;2024-01-30T00:34:27;12.27;;;9.23;;
11590;SDS011;5851;54.050;9.974;2024-01-30T00:36:54;11.02;;;8.60;;
11590;SDS011;5851;54.050;9.974;2024-01-30T00:39:21;11.18;;;8.77;;
11590;SDS011;5851;54.050;9.974;2024-01-30T00:41:48;10.98;;;8.73;;
11590;SDS011;5851;54.050;9.974;2024-01-30T00:44:15;11.15;;;8.70;;
11590;SDS011;5851;54.050;9.974;2024-01-30T00:46:42;11.07;;;8.75;;
11590;SDS011;5851;54.050;9.974;2024-01-30T00:49:10;11.90;;;8.90;;
11590;SDS011;5851;54.050;9.974;2024-01-30T00:51:38;10.10;;;8.60;;
11590;SDS011;5851;54.050;9.974;2024-01-30T00:54:05;10.50;;;8.50;;
11590;SDS011;5851;54.050;9.974;2024-01-30T00:56:33;11.85;;;9.00;;
11590;SDS011;5851;54.050;9.974;2024-01-30T00:59:00;11.23;;;8.80;;
11590;SDS011;5851;54.050;9.974;2024-01-30T01:01:27;11.48;;;8.98;;
11590;SDS011;5851;54.050;9.974;2024-01-30T01:03:54;10.48;;;8.57;;
11590;SDS011;5851;54.050;9.974;2024-01-30T01:06:20;11.23;;;8.88;;
11590;SDS011;5851;54.050;9.974;2024-01-30T01:08:49;11.80;;;8.50;;
11590;SDS011;5851;54.050;9.974;2024-01-30T01:11:16;10.15;;;8.48;;
11590;SDS011;5851;54.050;9.974;2024-01-30T01:13:42;11.20;;;8.35;;
11590;SDS011;5851;54.050;9.974;2024-01-30T01:16:09;12.90;;;9.18;;
11590;SDS011;5851;54.050;9.974;2024-01-30T01:18:36;11.23;;;8.70;;
11590;SDS011;5851;54.050;9.974;2024-01-30T01:21:03;11.00;;;9.07;;
11590;SDS011;5851;54.050;9.974;2024-01-30T01:23:31;11.95;;;8.95;;
11590;SDS011;5851;54.050;9.974;2024-01-30T01:25:59;11.45;;;9.57;;
11590;SDS011;5851;54.050;9.974;2024-01-30T01:28:26;13.85;;;10.43;;
11590;SDS011;5851;54.050;9.974;2024-01-30T01:30:53;12.05;;;9.50;;
11590;SDS011;5851;54.050;9.974;2024-01-30T01:33:24;12.77;;;9.90;;
11590;SDS011;5851;54.050;9.974;2024-01-30T01:35:51;12.00;;;9.77;;
11590;SDS011;5851;54.050;9.974;2024-01-30T01:38:18;12.98;;;9.93;;
11590;SDS011;5851;54.050;9.974;2024-01-30T01:40:44;13.30;;;9.60;;
11590;SDS011;5851;54.050;9.974;2024-01-30T01:43:12;13.85;;;10.05;;
11590;SDS011;5851;54.050;9.974;2024-01-30T01:45:39;13.70;;;9.52;;
11590;SDS011;5851;54.050;9.974;2024-01-30T01:48:06;13.80;;;9.90;;
11590;SDS011;5851;54.050;9.974;2024-01-30T01:50:34;12.80;;;9.32;;
11590;SDS011;5851;54.050;9.974;2024-01-30T01:53:02;12.20;;;9.15;;
11590;SDS011;5851;54.050;9.974;2024-01-30T01:55:31;13.00;;;8.95;;
11590;SDS011;5851;54.050;9.974;2024-01-30T01:57:58;12.32;;;9.05;;
11590;SDS011;5851;54.050;9.974;2024-01-30T02:00:27;11.88;;;8.88;;
11590;SDS011;5851;54.050;9.974;2024-01-30T02:02:54;11.52;;;8.80;;
11590;SDS011;5851;54.050;9.974;2024-01-30T02:05:22;11.23;;;8.57;;
11590;SDS011;5851;54.050;9.974;2024-01-30T02:07:50;11.88;;;8.88;;
11590;SDS011;5851;54.050;9.974;2024-01-30T02:10:17;12.63;;;8.25;;
11590;SDS011;5851;54.050;9.974;2024-01-30T02:12:44;11.30;;;8.70;;
11590;SDS011;5851;54.050;9.974;2024-01-30T02:15:13;12.02;;;8.98;;
11590;SDS011;5851;54.050;9.974;2024-01-30T02:17:41;11.03;;;8.70;;
11590;SDS011;5851;54.050;9.974;2024-01-30T02:20:09;11.30;;;8.60;;
11590;SDS011;5851;54.050;9.974;2024-01-30T02:22:38;11.35;;;8.88;;
11590;SDS011;5851;54.050;9.974;2024-01-30T02:25:07;11.30;;;8.90;;
11590;SDS011;5851;54.050;9.974;2024-01-30T02:27:34;11.30;;;8.80;;
11590;SDS011;5851;54.050;9.974;2024-01-30T02:30:01;11.15;;;8.77;;
11590;SDS011;5851;54.050;9.974;2024-01-30T02:32:28;12.18;;;8.98;;
11590;SDS011;5851;54.050;9.974;2024-01-30T02:34:55;12.40;;;8.75;;
11590;SDS011;5851;54.050;9.974;2024-01-30T02:37:22;12.23;;;9.13;;
11590;SDS011;5851;54.050;9.974;2024-01-30T02:39:50;11.23;;;8.68;;
11590;SDS011;5851;54.050;9.974;2024-01-30T02:42:17;13.15;;;9.30;;
11590;SDS011;5851;54.050;9.974;2024-01-30T02:44:44;10.50;;;8.80;;
11590;SDS011;5851;54.050;9.974;2024-01-30T02:47:11;11.38;;;9.00;;
11590;SDS011;5851;54.050;9.974;2024-01-30T02:49:39;11.68;;;8.98;;
11590;SDS011;5851;54.050;9.974;2024-01-30T02:52:05;11.80;;;8.82;;
11590;SDS011;5851;54.050;9.974;2024-01-30T02:54:32;12.00;;;8.90;;
11590;SDS011;5851;54.050;9.974;2024-01-30T02:57:01;11.45;;;8.68;;
11590;SDS011;5851;54.050;9.974;2024-01-30T02:59:27;11.48;;;8.82;;
11590;SDS011;5851;54.050;9.974;2024-01-30T03:01:55;11.18;;;8.75;;
11590;SDS011;5851;54.050;9.974;2024-01-30T03:04:22;10.13;;;8.50;;
11590;SDS011;5851;54.050;9.974;2024-01-30T03:06:48;12.88;;;8.77;;
11590;SDS011;5851;54.050;9.974;2024-01-30T03:09:16;11.70;;;8.63;;
11590;SDS011;5851;54.050;9.974;2024-01-30T03:11:43;12.40;;;8.90;;
11590;SDS011;5851;54.050;9.974;2024-01-30T03:14:11;10.83;;;8.80;;
11590;SDS011;5851;54.050;9.974;2024-01-30T03:16:38;11.23;;;9.20;;
11590;SDS011;5851;54.050;9.974;2024-01-30T03:19:06;10.60;;;8.75;;
11590;SDS011;5851;54.050;9.974;2024-01-30T03:21:34;9.40;;;8.35;;
11590;SDS011;5851;54.050;9.974;2024-01-30T03:24:01;11.13;;;8.20;;
11590;SDS011;5851;54.050;9.974;2024-01-30T03:26:28;11.43;;;8.65;;
11590;SDS011;5851;54.050;9.974;2024-01-30T03:28:55;10.57;;;8.18;;
11590;SDS011;5851;54.050;9.974;2024-01-30T03:31:23;11.38;;;8.77;;
11590;SDS011;5851;54.050;9.974;2024-01-30T03:33:50;11.25;;;8.60;;
11590;SDS011;5851;54.050;9.974;2024-01-30T03:36:17;13.40;;;8.75;;
11590;SDS011;5851;54.050;9.974;2024-01-30T03:38:44;11.73;;;8.90;;
11590;SDS011;5851;54.050;9.974;2024-01-30T03:41:11;13.97;;;8.93;;
11590;SDS011;5851;54.050;9.974;2024-01-30T03:43:37;11.13;;;8.18;;
11590;SDS011;5851;54.050;9.974;2024-01-30T03:46:04;10.45;;;8.65;;
11590;SDS011;5851;54.050;9.974;2024-01-30T03:48:33;9.70;;;8.23;;
11590;SDS011;5851;54.050;9.974;2024-01-30T03:51:00;10.57;;;8.40;;
11590;SDS011;5851;54.050;9.974;2024-01-30T03:53:26;11.33;;;8.23;;
11590;SDS011;5851;54.050;9.974;2024-01-30T03:55:53;11.93;;;8.38;;
11590;SDS011;5851;54.050;9.974;2024-01-30T03:58:20;11.45;;;8.30;;
11590;SDS011;5851;54.050;9.974;2024-01-30T04:00:47;10.68;;;8.20;;
11590;SDS011;5851;54.050;9.974;2024-01-30T04:03:14;10.25;;;8.60;;
11590;SDS011;5851;54.050;9.974;2024-01-30T04:05:43;11.25;;;8.65;;
11590;SDS011;5851;54.050;9.974;2024-01-30T04:08:10;10.75;;;8.80;;
11590;SDS011;5851;54.050;9.974;2024-01-30T04:10:37;11.48;;;8.75;;
11590;SDS011;5851;54.050;9.974;2024-01-30T04:13:04;10.55;;;8.32;;
11590;SDS011;5851;54.050;9.974;2024-01-30T04:15:30;12.90;;;9.20;;
11590;SDS011;5851;54.050;9.974;2024-01-30T04:17:57;11.77;;;8.73;;
11590;SDS011;5851;54.050;9.974;2024-01-30T04:20:25;10.95;;;8.55;;
11590;SDS011;5851;54.050;9.974;2024-01-30T04:22:53;9.85;;;7.88;;
11590;SDS011;5851;54.050;9.974;2024-01-30T04:25:20;10.13;;;8.38;;
11590;SDS011;5851;54.050;9.974;2024-01-30T04:27:47;9.77;;;8.13;;
11590;SDS011;5851;54.050;9.974;2024-01-30T04:30:14;10.13;;;8.38;;
11590;SDS011;5851;54.050;9.974;2024-01-30T04:32:42;9.38;;;8.20;;
11590;SDS011;5851;54.050;9.974;2024-01-30T04:35:10;10.97;;;8.40;;
11590;SDS011;5851;54.050;9.974;2024-01-30T04:37:37;10.73;;;8.23;;
11590;SDS011;5851;54.050;9.974;2024-01-30T04:40:06;10.38;;;8.40;;
11590;SDS011;5851;54.050;9.974;2024-01-30T04:42:34;9.95;;;8.05;;
11590;SDS011;5851;54.050;9.974;2024-01-30T04:45:01;11.60;;;8.48;;
11590;SDS011;5851;54.050;9.974;2024-01-30T04:47:28;10.00;;;7.85;;
11590;SDS011;5851;54.050;9.974;2024-01-30T04:49:55;10.45;;;8.20;;
11590;SDS011;5851;54.050;9.974;2024-01-30T04:52:23;9.65;;;7.78;;
11590;SDS011;5851;54.050;9.974;2024-01-30T04:54:49;10.13;;;7.75;;
11590;SDS011;5851;54.050;9.974;2024-01-30T04:57:18;9.48;;;7.93;;
11590;SDS011;5851;54.050;9.974;2024-01-30T04:59:45;9.60;;;7.72;;
11590;SDS011;5851;54.050;9.974;2024-01-30T05:02:12;10.27;;;7.90;;
11590;SDS011;5851;54.050;9.974;2024-01-30T05:04:40;9.90;;;8.15;;
11590;SDS011;5851;54.050;9.974;2024-01-30T05:07:07;8.93;;;7.35;;
11590;SDS011;5851;54.050;9.974;2024-01-30T05:09:34;10.43;;;7.88;;
11590;SDS011;5851;54.050;9.974;2024-01-30T05:12:01;8.82;;;7.75;;
11590;SDS011;5851;54.050;9.974;2024-01-30T05:14:29;9.85;;;8.15;;
11590;SDS011;5851;54.050;9.974;2024-01-30T05:16:56;9.80;;;7.90;;
11590;SDS011;5851;54.050;9.974;2024-01-30T05:19:23;10.23;;;7.80;;
11590;SDS011;5851;54.050;9.974;2024-01-30T05:21:50;9.75;;;7.65;;
11590;SDS011;5851;54.050;9.974;2024-01-30T05:24:17;8.93;;;7.53;;
11590;SDS011;5851;54.050;9.974;2024-01-30T05:26:44;9.50;;;7.33;;
11590;SDS011;5851;54.050;9.974;2024-01-30T05:29:12;9.60;;;7.60;;
11590;SDS011;5851;54.050;9.974;2024-01-30T05:31:40;9.68;;;7.82;;
11590;SDS011;5851;54.050;9.974;2024-01-30T05:34:07;9.05;;;7.93;;
11590;SDS011;5851;54.050;9.974;2024-01-30T05:36:34;9.18;;;7.60;;
11590;SDS011;5851;54.050;9.974;2024-01-30T05:39:01;9.48;;;7.50;;
11590;SDS011;5851;54.050;9.974;2024-01-30T05:41:28;9.00;;;7.88;;
11590;SDS011;5851;54.050;9.974;2024-01-30T05:43:55;9.65;;;7.93;;
11590;SDS011;5851;54.050;9.974;2024-01-30T05:46:22;10.10;;;7.88;;
11590;SDS011;5851;54.050;9.974;2024-01-30T05:48:51;9.97;;;8.07;;
11590;SDS011;5851;54.050;9.974;2024-01-30T05:51:18;10.00;;;7.43;;
11590;SDS011;5851;54.050;9.974;2024-01-30T05:53:45;10.18;;;7.80;;
11590;SDS011;5851;54.050;9.974;2024-01-30T05:56:12;10.18;;;7.78;;
11590;SDS011;5851;54.050;9.974;2024-01-30T05:58:39;9.93;;;8.20;;
11590;SDS011;5851;54.050;9.974;2024-01-30T06:01:06;11.50;;;8.00;;
11590;SDS011;5851;54.050;9.974;2024-01-30T06:03:34;10.18;;;8.20;;
11590;SDS011;5851;54.050;9.974;2024-01-30T06:06:03;10.85;;;8.50;;
11590;SDS011;5851;54.050;9.974;2024-01-30T06:08:30;11.40;;;8.48;;
11590;SDS011;5851;54.050;9.974;2024-01-30T06:10:57;12.73;;;8.20;;
11590;SDS011;5851;54.050;9.974;2024-01-30T06:13:24;10.57;;;8.27;;
11590;SDS011;5851;54.050;9.974;2024-01-30T06:15:51;10.18;;;8.23;;
11590;SDS011;5851;54.050;9.974;2024-01-30T06:18:17;10.98;;;8.45;;
11590;SDS011;5851;54.050;9.974;2024-01-30T06:20:45;11.13;;;8.20;;
11590;SDS011;5851;54.050;9.974;2024-01-30T06:23:14;10.35;;;8.48;;
11590;SDS011;5851;54.050;9.974;2024-01-30T06:25:41;10.07;;;8.45;;
11590;SDS011;5851;54.050;9.974;2024-01-30T06:28:08;11.32;;;8.90;;
11590;SDS011;5851;54.050;9.974;2024-01-30T06:30:34;9.93;;;8.70;;
11590;SDS011;5851;54.050;9.974;2024-01-30T06:33:01;10.75;;;8.52;;
11590;SDS011;5851;54.050;9.974;2024-01-30T06:35:28;11.73;;;9.40;;
11590;SDS011;5851;54.050;9.974;2024-01-30T06:37:55;11.15;;;8.73;;
11590;SDS011;5851;54.050;9.974;2024-01-30T06:40:24;12.43;;;8.55;;
11590;SDS011;5851;54.050;9.974;2024-01-30T06:42:51;9.70;;;8.52;;
11590;SDS011;5851;54.050;9.974;2024-01-30T06:45:18;11.02;;;8.60;;
11590;SDS011;5851;54.050;9.974;2024-01-30T06:47:44;11.88;;;8.25;;
11590;SDS011;5851;54.050;9.974;2024-01-30T06:50:11;10.52;;;8.23;;
11590;SDS011;5851;54.050;9.974;2024-01-30T06:52:39;11.52;;;8.88;;
11590;SDS011;5851;54.050;9.974;2024-01-30T06:55:06;10.50;;;8.90;;
11590;SDS011;5851;54.050;9.974;2024-01-30T06:57:34;11.23;;;8.30;;
11590;SDS011;5851;54.050;9.974;2024-01-30T07:00:01;11.50;;;8.32;;
11590;SDS011;5851;54.050;9.974;2024-01-30T07:02:29;11.80;;;9.10;;
11590;SDS011;5851;54.050;9.974;2024-01-30T07:04:55;10.82;;;8.90;;
11590;SDS011;5851;54.050;9.974;2024-01-30T07:07:22;10.98;;;9.00;;
11590;SDS011;5851;54.050;9.974;2024-01-30T07:09:49;11.27;;;8.45;;
11590;SDS011;5851;54.050;9.974;2024-01-30T07:12:21;11.70;;;8.55;;
11590;SDS011;5851;54.050;9.974;2024-01-30T07:14:51;10.87;;;8.33;;
11590;SDS011;5851;54.050;9.974;2024-01-30T07:17:18;10.93;;;8.65;;
11590;SDS011;5851;54.050;9.974;2024-01-30T07:19:45;10.77;;;8.63;;
11590;SDS011;5851;54.050;9.974;2024-01-30T07:22:12;10.30;;;8.70;;
11590;SDS011;5851;54.050;9.974;2024-01-30T07:24:41;10.80;;;8.73;;
11590;SDS011;5851;54.050;9.974;2024-01-30T07:27:12;11.05;;;9.00;;
11590;SDS011;5851;54.050;9.974;2024-01-30T07:29:39;11.13;;;8.70;;
11590;SDS011;5851;54.050;9.974;2024-01-30T07:32:08;10.63;;;8.50;;
11590;SDS011;5851;54.050;9.974;2024-01-30T07:34:34;11.93;;;8.50;;
11590;SDS011;5851;54.050;9.974;2024-01-30T07:37:01;12.93;;;8.85;;
11590;SDS011;5851;54.050;9.974;2024-01-30T07:39:29;10.70;;;8.80;;
11590;SDS011;5851;54.050;9.974;2024-01-30T07:41:56;11.40;;;8.83;;
11590;SDS011;5851;54.050;9.974;2024-01-30T07:44:22;10.32;;;8.55;;
11590;SDS011;5851;54.050;9.974;2024-01-30T07:46:50;11.75;;;9.02;;
11590;SDS011;5851;54.050;9.974;2024-01-30T07:49:18;11.88;;;8.60;;
11590;SDS011;5851;54.050;9.974;2024-01-30T07:51:45;11.55;;;8.70;;
11590;SDS011;5851;54.050;9.974;2024-01-30T07:54:12;10.80;;;8.75;;
11590;SDS011;5851;54.050;9.974;2024-01-30T07:56:39;11.23;;;8.90;;
11590;SDS011;5851;54.050;9.974;2024-01-30T07:59:09;10.98;;;8.80;;
11590;SDS011;5851;54.050;9.974;2024-01-30T08:01:36;11.70;;;8.68;;
11590;SDS011;5851;54.050;9.974;2024-01-30T08:04:03;10.00;;;8.57;;
11590;SDS011;5851;54.050;9.974;2024-01-30T08:06:32;10.47;;;8.67;;
11590;SDS011;5851;54.050;9.974;2024-01-30T08:08:59;10.98;;;8.98;;
11590;SDS011;5851;54.050;9.974;2024-01-30T08:11:26;10.60;;;8.73;;
11590;SDS011;5851;54.050;9.974;2024-01-30T08:13:54;9.75;;;8.65;;
11590;SDS011;5851;54.050;9.974;2024-01-30T08:16:21;13.15;;;9.35;;
11590;SDS011;5851;54.050;9.974;2024-01-30T08:18:48;11.25;;;8.70;;
11590;SDS011;5851;54.050;9.974;2024-01-30T08:21:15;11.85;;;9.90;;
11590;SDS011;5851;54.050;9.974;2024-01-30T08:23:44;12.10;;;9.50;;
11590;SDS011;5851;54.050;9.974;2024-01-30T08:26:11;11.45;;;9.38;;
11590;SDS011;5851;54.050;9.974;2024-01-30T08:28:37;12.00;;;9.70;;
11590;SDS011;5851;54.050;9.974;2024-01-30T08:31:04;11.82;;;9.30;;
11590;SDS011;5851;54.050;9.974;2024-01-30T08:33:32;11.63;;;9.63;;
11590;SDS011;5851;54.050;9.974;2024-01-30T08:35:58;12.13;;;9.73;;
11590;SDS011;5851;54.050;9.974;2024-01-30T08:38:25;12.93;;;9.43;;
11590;SDS011;5851;54.050;9.974;2024-01-30T08:40:54;12.45;;;10.02;;
11590;SDS011;5851;54.050;9.974;2024-01-30T08:43:21;14.25;;;10.48;;
11590;SDS011;5851;54.050;9.974;2024-01-30T08:45:48;12.27;;;10.02;;
11590;SDS011;5851;54.050;9.974;2024-01-30T08:48:15;14.75;;;10.43;;
11590;SDS011;5851;54.050;9.974;2024-01-30T08:50:42;13.02;;;9.93;;
11590;SDS011;5851;54.050;9.974;2024-01-30T08:53:09;12.55;;;10.07;;
11590;SDS011;5851;54.050;9.974;2024-01-30T08:55:36;12.50;;;10.10;;
11590;SDS011;5851;54.050;9.974;2024-01-30T08:58:05;12.93;;;9.55;;
11590;SDS011;5851;54.050;9.974;2024-01-30T09:00:33;12.50;;;9.93;;
11590;SDS011;5851;54.050;9.974;2024-01-30T09:03:00;12.80;;;10.40;;
11590;SDS011;5851;54.050;9.974;2024-01-30T09:05:26;13.40;;;10.18;;
11590;SDS011;5851;54.050;9.974;2024-01-30T09:07:54;13.02;;;10.43;;
11590;SDS011;5851;54.050;9.974;2024-01-30T09:10:21;13.88;;;10.45;;
11590;SDS011;5851;54.050;9.974;2024-01-30T09:12:48;13.38;;;10.23;;
11590;SDS011;5851;54.050;9.974;2024-01-30T09:15:16;16.60;;;10.75;;
11590;SDS011;5851;54.050;9.974;2024-01-30T09:17:44;16.15;;;10.68;;
11590;SDS011;5851;54.050;9.974;2024-01-30T09:20:11;13.55;;;10.55;;
11590;SDS011;5851;54.050;9.974;2024-01-30T09:22:38;14.67;;;10.80;;
11590;SDS011;5851;54.050;9.974;2024-01-30T09:25:05;13.32;;;10.25;;
11590;SDS011;5851;54.050;9.974;2024-01-30T09:27:32;13.00;;;10.13;;
11590;SDS011;5851;54.050;9.974;2024-01-30T09:29:59;12.85;;;10.00;;
11590;SDS011;5851;54.050;9.974;2024-01-30T09:32:27;13.67;;;10.60;;
11590;SDS011;5851;54.050;9.974;2024-01-30T09:34:54;13.95;;;10.25;;
11590;SDS011;5851;54.050;9.974;2024-01-30T09:37:21;12.95;;;9.70;;
11590;SDS011;5851;54.050;9.974;2024-01-30T09:39:48;13.15;;;10.40;;
11590;SDS011;5851;54.050;9.974;2024-01-30T09:42:18;12.73;;;10.45;;
11590;SDS011;5851;54.050;9.974;2024-01-30T09:44:52;12.70;;;9.95;;
11590;SDS011;5851;54.050;9.974;2024-01-30T09:47:20;12.95;;;10.63;;
11590;SDS011;5851;54.050;9.974;2024-01-30T09:49:49;12.98;;;10.50;;
11590;SDS011;5851;54.050;9.974;2024-01-30T09:52:17;13.97;;;11.20;;
11590;SDS011;5851;54.050;9.974;2024-01-30T09:54:44;14.63;;;10.70;;
11590;SDS011;5851;54.050;9.974;2024-01-30T09:57:12;13.07;;;10.57;;
11590;SDS011;5851;54.050;9.974;2024-01-30T09:59:41;15.15;;;11.35;;
11590;SDS011;5851;54.050;9.974;2024-01-30T10:02:08;13.32;;;11.20;;
11590;SDS011;5851;54.050;9.974;2024-01-30T10:04:36;14.13;;;11.45;;
11590;SDS011;5851;54.050;9.974;2024-01-30T10:07:04;11.93;;;10.20;;
11590;SDS011;5851;54.050;9.974;2024-01-30T10:09:32;14.98;;;11.30;;
11590;SDS011;5851;54.050;9.974;2024-01-30T10:11:59;14.25;;;10.43;;
11590;SDS011;5851;54.050;9.974;2024-01-30T10:14:28;12.85;;;10.23;;
11590;SDS011;5851;54.050;9.974;2024-01-30T10:16:55;12.55;;;10.25;;
11590;SDS011;5851;54.050;9.974;2024-01-30T10:19:24;12.85;;;10.82;;
11590;SDS011;5851;54.050;9.974;2024-01-30T10:21:52;12.95;;;10.60;;
11590;SDS011;5851;54.050;9.974;2024-01-30T10:24:24;13.98;;;10.98;;
11590;SDS011;5851;54.050;9.974;2024-01-30T10:26:52;13.93;;;10.77;;
11590;SDS011;5851;54.050;9.974;2024-01-30T10:29:19;14.57;;;10.57;;
11590;SDS011;5851;54.050;9.974;2024-01-30T10:31:56;13.52;;;10.98;;
11590;SDS011;5851;54.050;9.974;2024-01-30T10:34:24;13.27;;;10.97;;
11590;SDS011;5851;54.050;9.974;2024-01-30T10:36:51;12.93;;;10.45;;
11590;SDS011;5851;54.050;9.974;2024-01-30T10:39:32;15.07;;;11.10;;
11590;SDS011;5851;54.050;9.974;2024-01-30T10:42:04;15.55;;;11.30;;
11590;SDS011;5851;54.050;9.974;2024-01-30T10:44:36;14.05;;;11.15;;
11590;SDS011;5851;54.050;9.974;2024-01-30T10:47:11;14.10;;;10.23;;
11590;SDS011;5851;54.050;9.974;2024-01-30T10:49:39;13.13;;;10.07;;
11590;SDS011;5851;54.050;9.974;2024-01-30T10:52:08;13.95;;;11.20;;
11590;SDS011;5851;54.050;9.974;2024-01-30T10:54:38;14.88;;;11.48;;
11590;SDS011;5851;54.050;9.974;2024-01-30T10:57:08;13.82;;;11.05;;
11590;SDS011;5851;54.050;9.974;2024-01-30T10:59:37;14.43;;;11.60;;
11590;SDS011;5851;54.050;9.974;2024-01-30T11:02:05;13.93;;;10.98;;
11590;SDS011;5851;54.050;9.974;2024-01-30T11:04:35;15.18;;;10.95;;
11590;SDS011;5851;54.050;9.974;2024-01-30T11:07:03;15.05;;;11.95;;
11590;SDS011;5851;54.050;9.974;2024-01-30T11:09:47;15.25;;;11.65;;
11590;SDS011;5851;54.050;9.974;2024-01-30T11:12:16;13.80;;;11.50;;
11590;SDS011;5851;54.050;9.974;2024-01-30T11:14:47;15.73;;;11.07;;
11590;SDS011;5851;54.050;9.974;2024-01-30T11:17:14;13.15;;;10.68;;
11590;SDS011;5851;54.050;9.974;2024-01-30T11:19:41;13.60;;;10.80;;
11590;SDS011;5851;54.050;9.974;2024-01-30T11:22:08;15.30;;;10.82;;
11590;SDS011;5851;54.050;9.974;2024-01-30T11:24:42;14.55;;;10.52;;
11590;SDS011;5851;54.050;9.974;2024-01-30T11:27:09;15.57;;;11.02;;
11590;SDS011;5851;54.050;9.974;2024-01-30T11:29:36;15.07;;;11.27;;
11590;SDS011;5851;54.050;9.974;2024-01-30T11:32:03;13.55;;;10.80;;
11590;SDS011;5851;54.050;9.974;2024-01-30T11:34:32;12.82;;;11.07;;
11590;SDS011;5851;54.050;9.974;2024-01-30T11:37:01;14.10;;;11.00;;
11590;SDS011;5851;54.050;9.974;2024-01-30T11:39:35;14.35;;;10.77;;
11590;SDS011;5851;54.050;9.974;2024-01-30T11:42:06;12.85;;;10.75;;
11590;SDS011;5851;54.050;9.974;2024-01-30T11:44:35;14.60;;;11.07;;
11590;SDS011;5851;54.050;9.974;2024-01-30T11:47:02;14.57;;;10.65;;
11590;SDS011;5851;54.050;9.974;2024-01-30T11:49:29;18.33;;;15.05;;
11590;SDS011;5851;54.050;9.974;2024-01-30T11:51:56;15.13;;;11.80;;
11590;SDS011;5851;54.050;9.974;2024-01-30T11:54:23;15.45;;;11.30;;
11590;SDS011;5851;54.050;9.974;2024-01-30T11:56:50;13.43;;;10.65;;
11590;SDS011;5851;54.050;9.974;2024-01-30T11:59:19;15.68;;;11.13;;
11590;SDS011;5851;54.050;9.974;2024-01-30T12:01:45;15.33;;;10.90;;
11590;SDS011;5851;54.050;9.974;2024-01-30T12:04:13;13.90;;;10.90;;
11590;SDS011;5851;54.050;9.974;2024-01-30T12:06:40;15.40;;;11.60;;
11590;SDS011;5851;54.050;9.974;2024-01-30T12:09:07;14.02;;;10.68;;
11590;SDS011;5851;54.050;9.974;2024-01-30T12:11:43;14.07;;;10.33;;
11590;SDS011;5851;54.050;9.974;2024-01-30T12:14:11;13.43;;;10.50;;
11590;SDS011;5851;54.050;9.974;2024-01-30T12:16:40;12.37;;;10.33;;
11590;SDS011;5851;54.050;9.974;2024-01-30T12:19:07;13.43;;;10.60;;
11590;SDS011;5851;54.050;9.974;2024-01-30T12:21:34;13.55;;;10.88;;
11590;SDS011;5851;54.050;9.974;2024-01-30T12:24:01;13.07;;;10.70;;
11590;SDS011;5851;54.050;9.974;2024-01-30T12:26:29;14.13;;;10.82;;
11590;SDS011;5851;54.050;9.974;2024-01-30T12:28:56;14.85;;;10.73;;
11590;SDS011;5851;54.050;9.974;2024-01-30T12:31:27;14.05;;;11.10;;
11590;SDS011;5851;54.050;9.974;2024-01-30T12:33:56;15.07;;;10.52;;
11590;SDS011;5851;54.050;9.974;2024-01-30T12:36:25;17.17;;;12.40;;
11590;SDS011;5851;54.050;9.974;2024-01-30T12:38:52;14.43;;;10.73;;
11590;SDS011;5851;54.050;9.974;2024-01-30T12:41:19;13.77;;;11.27;;
11590;SDS011;5851;54.050;9.974;2024-01-30T12:43:46;13.80;;;10.98;;
11590;SDS011;5851;54.050;9.974;2024-01-30T12:46:13;13.48;;;10.68;;
11590;SDS011;5851;54.050;9.974;2024-01-30T12:48:43;14.10;;;11.10;;
11590;SDS011;5851;54.050;9.974;2024-01-30T12:51:11;13.50;;;11.20;;
11590;SDS011;5851;54.050;9.974;2024-01-30T12:53:38;14.60;;;11.00;;
11590;SDS011;5851;54.050;9.974;2024-01-30T12:56:05;13.07;;;10.43;;
11590;SDS011;5851;54.050;9.974;2024-01-30T12:58:32;14.98;;;10.85;;
11590;SDS011;5851;54.050;9.974;2024-01-30T13:00:59;14.43;;;11.37;;
11590;SDS011;5851;54.050;9.974;2024-01-30T13:03:26;15.98;;;11.02;;
11590;SDS011;5851;54.050;9.974;2024-01-30T13:05:53;15.25;;;10.65;;
11590;SDS011;5851;54.050;9.974;2024-01-30T13:08:22;14.52;;;11.02;;
11590;SDS011;5851;54.050;9.974;2024-01-30T13:10:49;14.90;;;11.48;;
11590;SDS011;5851;54.050;9.974;2024-01-30T13:13:16;15.93;;;11.13;;
11590;SDS011;5851;54.050;9.974;2024-01-30T13:15:43;16.47;;;11.30;;
11590;SDS011;5851;54.050;9.974;2024-01-30T13:18:10;13.82;;;11.00;;
11590;SDS011;5851;54.050;9.974;2024-01-30T13:20:37;14.38;;;11.10;;
11590;SDS011;5851;54.050;9.974;2024-01-30T13:23:04;13.95;;;11.50;;
11590;SDS011;5851;54.050;9.974;2024-01-30T13:25:32;13.05;;;11.02;;
11590;SDS011;5851;54.050;9.974;2024-01-30T13:27:59;14.75;;;11.52;;
11590;SDS011;5851;54.050;9.974;2024-01-30T13:30:26;14.18;;;10.73;;
11590;SDS011;5851;54.050;9.974;2024-01-30T13:32:53;15.88;;;11.45;;
11590;SDS011;5851;54.050;9.974;2024-01-30T13:35:20;16.10;;;11.48;;
11590;SDS011;5851;54.050;9.974;2024-01-30T13:37:47;18.25;;;11.38;;
11590;SDS011;5851;54.050;9.974;2024-01-30T13:40:14;18.30;;;11.70;;
11590;SDS011;5851;54.050;9.974;2024-01-30T13:42:43;18.63;;;12.77;;
11590;SDS011;5851;54.050;9.974;2024-01-30T13:45:10;15.30;;;11.57;;
11590;SDS011;5851;54.050;9.974;2024-01-30T13:47:37;14.82;;;11.05;;
11590;SDS011;5851;54.050;9.974;2024-01-30T13:50:04;14.90;;;10.90;;
11590;SDS011;5851;54.050;9.974;2024-01-30T13:52:31;15.70;;;10.85;;
11590;SDS011;5851;54.050;9.974;2024-01-30T13:54:58;14.05;;;10.70;;
11590;SDS011;5851;54.050;9.974;2024-01-30T13:57:25;22.13;;;12.55;;
11590;SDS011;5851;54.050;9.974;2024-01-30T13:59:53;16.08;;;11.57;;
11590;SDS011;5851;54.050;9.974;2024-01-30T14:02:20;18.58;;;11.68;;
11590;SDS011;5851;54.050;9.974;2024-01-30T14:04:47;15.07;;;11.80;;
11590;SDS011;5851;54.050;9.974;2024-01-30T14:07:14;14.18;;;11.02;;
11590;SDS011;5851;54.050;9.974;2024-01-30T14:09:43;15.32;;;11.65;;
11590;SDS011;5851;54.050;9.974;2024-01-30T14:12:10;15.33;;;11.30;;
11590;SDS011;5851;54.050;9.974;2024-01-30T14:14:37;17.07;;;11.90;;
11590;SDS011;5851;54.050;9.974;2024-01-30T14:17:05;15.15;;;10.88;;
11590;SDS011;5851;54.050;9.974;2024-01-30T14:19:33;13.98;;;11.77;;
11590;SDS011;5851;54.050;9.974;2024-01-30T14:22:00;14.88;;;11.55;;
11590;SDS011;5851;54.050;9.974;2024-01-30T14:24:27;18.00;;;11.63;;
11590;SDS011;5851;54.050;9.974;2024-01-30T14:26:54;17.63;;;11.80;;
11590;SDS011;5851;54.050;9.974;2024-01-30T14:29:21;14.63;;;11.20;;
11590;SDS011;5851;54.050;9.974;2024-01-30T14:31:48;15.93;;;11.45;;
11590;SDS011;5851;54.050;9.974;2024-01-30T14:34:16;26.75;;;14.70;;
11590;SDS011;5851;54.050;9.974;2024-01-30T14:36:44;19.85;;;12.90;;
11590;SDS011;5851;54.050;9.974;2024-01-30T14:39:11;15.85;;;11.60;;
11590;SDS011;5851;54.050;9.974;2024-01-30T14:41:38;16.90;;;11.38;;
11590;SDS011;5851;54.050;9.974;2024-01-30T14:44:05;15.10;;;11.02;;